sensor_id;sensor_type;location;lat;lon;timestamp;P1;durP1;ratioP1;P2;durP2;ratioP2
67248;SDS011;63247;54.300;18.592;2023-08-20T00:01:21;31.60;;;22.77;;
67248;SDS011;63247;54.300;18.592;2023-08-20T00:03:49;32.47;;;22.67;;
67248;SDS011;63247;54.300;18.592;2023-08-20T00:06:15;31.98;;;23.20;;
67248;SDS011;63247;54.300;18.592;2023-08-20T00:08:41;33.63;;;23.00;;
67248;SDS011;63247;54.300;18.592;2023-08-20T00:11:06;32.57;;;22.40;;
67248;SDS011;63247;54.300;18.592;2023-08-20T00:13:31;32.63;;;23.37;;
67248;SDS011;63247;54.300;18.592;2023-08-20T00:15:57;33.10;;;22.17;;
67248;SDS011;63247;54.300;18.592;2023-08-20T00:18:22;31.23;;;22.88;;
67248;SDS011;63247;54.300;18.592;2023-08-20T00:20:48;33.03;;;22.60;;
67248;SDS011;63247;54.300;18.592;2023-08-20T00:23:13;31.93;;;22.90;;
67248;SDS011;63247;54.300;18.592;2023-08-20T00:25:39;37.25;;;24.63;;
67248;SDS011;63247;54.300;18.592;2023-08-20T00:28:05;36.47;;;23.67;;
67248;SDS011;63247;54.300;18.592;2023-08-20T00:30:30;34.13;;;23.97;;
67248;SDS011;63247;54.300;18.592;2023-08-20T00:32:56;37.50;;;25.67;;
67248;SDS011;63247;54.300;18.592;2023-08-20T00:35:21;35.90;;;24.60;;
67248;SDS011;63247;54.300;18.592;2023-08-20T00:37:47;35.60;;;24.53;;
67248;SDS011;63247;54.300;18.592;2023-08-20T00:40:12;36.20;;;24.43;;
67248;SDS011;63247;54.300;18.592;2023-08-20T00:42:38;35.22;;;25.38;;
67248;SDS011;63247;54.300;18.592;2023-08-20T00:45:03;36.27;;;25.63;;
67248;SDS011;63247;54.300;18.592;2023-08-20T00:47:29;35.78;;;24.83;;
67248;SDS011;63247;54.300;18.592;2023-08-20T00:49:55;37.43;;;26.20;;
67248;SDS011;63247;54.300;18.592;2023-08-20T00:52:21;36.67;;;25.25;;
67248;SDS011;63247;54.300;18.592;2023-08-20T00:54:47;41.83;;;26.87;;
67248;SDS011;63247;54.300;18.592;2023-08-20T00:57:13;35.63;;;26.08;;
67248;SDS011;63247;54.300;18.592;2023-08-20T00:59:40;41.47;;;27.05;;
67248;SDS011;63247;54.300;18.592;2023-08-20T01:02:06;38.40;;;26.65;;
67248;SDS011;63247;54.300;18.592;2023-08-20T01:04:32;39.77;;;26.33;;
67248;SDS011;63247;54.300;18.592;2023-08-20T01:09:50;39.05;;;26.95;;
67248;SDS011;63247;54.300;18.592;2023-08-20T01:12:34;38.08;;;26.48;;
67248;SDS011;63247;54.300;18.592;2023-08-20T01:15:01;41.55;;;28.67;;
67248;SDS011;63247;54.300;18.592;2023-08-20T01:17:26;41.43;;;28.43;;
67248;SDS011;63247;54.300;18.592;2023-08-20T01:19:52;41.20;;;28.30;;
67248;SDS011;63247;54.300;18.592;2023-08-20T01:22:21;37.83;;;27.27;;
67248;SDS011;63247;54.300;18.592;2023-08-20T01:30:49;42.00;;;27.40;;
67248;SDS011;63247;54.300;18.592;2023-08-20T01:33:15;41.30;;;28.20;;
67248;SDS011;63247;54.300;18.592;2023-08-20T01:35:41;42.47;;;28.60;;
67248;SDS011;63247;54.300;18.592;2023-08-20T01:38:06;45.00;;;29.23;;
67248;SDS011;63247;54.300;18.592;2023-08-20T01:40:32;43.33;;;28.50;;
67248;SDS011;63247;54.300;18.592;2023-08-20T01:42:58;40.60;;;27.73;;
67248;SDS011;63247;54.300;18.592;2023-08-20T01:45:24;42.63;;;28.55;;
67248;SDS011;63247;54.300;18.592;2023-08-20T01:47:49;46.37;;;29.60;;
67248;SDS011;63247;54.300;18.592;2023-08-20T01:50:14;45.47;;;31.00;;
67248;SDS011;63247;54.300;18.592;2023-08-20T01:52:40;43.67;;;29.47;;
67248;SDS011;63247;54.300;18.592;2023-08-20T01:55:05;46.67;;;30.80;;
67248;SDS011;63247;54.300;18.592;2023-08-20T01:57:31;43.53;;;29.33;;
67248;SDS011;63247;54.300;18.592;2023-08-20T01:59:57;47.50;;;31.53;;
67248;SDS011;63247;54.300;18.592;2023-08-20T02:02:23;49.95;;;32.47;;
67248;SDS011;63247;54.300;18.592;2023-08-20T02:04:48;75.78;;;35.97;;
67248;SDS011;63247;54.300;18.592;2023-08-20T02:07:13;342.23;;;53.00;;
67248;SDS011;63247;54.300;18.592;2023-08-20T02:09:39;584.50;;;64.30;;
67248;SDS011;63247;54.300;18.592;2023-08-20T02:12:04;156.93;;;36.70;;
67248;SDS011;63247;54.300;18.592;2023-08-20T02:14:30;297.83;;;49.40;;
67248;SDS011;63247;54.300;18.592;2023-08-20T02:16:59;79.95;;;36.03;;
67248;SDS011;63247;54.300;18.592;2023-08-20T02:19:25;50.40;;;35.00;;
67248;SDS011;63247;54.300;18.592;2023-08-20T02:21:50;53.30;;;34.83;;
67248;SDS011;63247;54.300;18.592;2023-08-20T02:24:15;51.07;;;35.37;;
67248;SDS011;63247;54.300;18.592;2023-08-20T02:26:40;51.40;;;35.05;;
67248;SDS011;63247;54.300;18.592;2023-08-20T02:29:06;167.40;;;42.23;;
67248;SDS011;63247;54.300;18.592;2023-08-20T02:31:31;54.03;;;34.80;;
67248;SDS011;63247;54.300;18.592;2023-08-20T02:33:56;688.20;;;82.03;;
67248;SDS011;63247;54.300;18.592;2023-08-20T02:36:22;392.10;;;54.67;;
67248;SDS011;63247;54.300;18.592;2023-08-20T02:38:47;51.43;;;34.30;;
67248;SDS011;63247;54.300;18.592;2023-08-20T02:41:12;63.97;;;36.27;;
67248;SDS011;63247;54.300;18.592;2023-08-20T02:43:37;50.13;;;34.30;;
67248;SDS011;63247;54.300;18.592;2023-08-20T02:46:03;149.53;;;37.67;;
67248;SDS011;63247;54.300;18.592;2023-08-20T02:48:28;49.28;;;33.38;;
67248;SDS011;63247;54.300;18.592;2023-08-20T02:50:54;47.88;;;32.97;;
67248;SDS011;63247;54.300;18.592;2023-08-20T02:53:20;52.17;;;34.87;;
67248;SDS011;63247;54.300;18.592;2023-08-20T02:55:46;117.82;;;38.15;;
67248;SDS011;63247;54.300;18.592;2023-08-20T02:58:11;50.17;;;34.97;;
67248;SDS011;63247;54.300;18.592;2023-08-20T03:00:36;49.95;;;34.65;;
67248;SDS011;63247;54.300;18.592;2023-08-20T03:03:02;52.07;;;36.33;;
67248;SDS011;63247;54.300;18.592;2023-08-20T03:05:31;52.00;;;35.53;;
67248;SDS011;63247;54.300;18.592;2023-08-20T03:07:56;51.72;;;35.17;;
67248;SDS011;63247;54.300;18.592;2023-08-20T03:10:22;48.70;;;32.63;;
67248;SDS011;63247;54.300;18.592;2023-08-20T03:12:47;51.70;;;34.23;;
67248;SDS011;63247;54.300;18.592;2023-08-20T03:15:12;55.33;;;35.57;;
67248;SDS011;63247;54.300;18.592;2023-08-20T03:17:38;56.20;;;34.77;;
67248;SDS011;63247;54.300;18.592;2023-08-20T03:20:03;50.73;;;34.83;;
67248;SDS011;63247;54.300;18.592;2023-08-20T03:22:31;53.38;;;35.95;;
67248;SDS011;63247;54.300;18.592;2023-08-20T03:24:56;54.90;;;35.93;;
67248;SDS011;63247;54.300;18.592;2023-08-20T03:27:21;54.57;;;35.83;;
67248;SDS011;63247;54.300;18.592;2023-08-20T03:29:47;51.33;;;35.87;;
67248;SDS011;63247;54.300;18.592;2023-08-20T03:32:12;54.00;;;36.87;;
67248;SDS011;63247;54.300;18.592;2023-08-20T03:34:38;54.88;;;36.38;;
67248;SDS011;63247;54.300;18.592;2023-08-20T03:37:03;54.27;;;36.20;;
67248;SDS011;63247;54.300;18.592;2023-08-20T03:39:29;53.15;;;35.65;;
67248;SDS011;63247;54.300;18.592;2023-08-20T03:41:56;51.60;;;34.13;;
67248;SDS011;63247;54.300;18.592;2023-08-20T03:44:22;56.25;;;37.25;;
67248;SDS011;63247;54.300;18.592;2023-08-20T03:46:47;55.63;;;37.70;;
67248;SDS011;63247;54.300;18.592;2023-08-20T03:49:13;54.67;;;34.22;;
67248;SDS011;63247;54.300;18.592;2023-08-20T03:51:38;83.77;;;35.97;;
67248;SDS011;63247;54.300;18.592;2023-08-20T03:54:03;48.63;;;33.20;;
67248;SDS011;63247;54.300;18.592;2023-08-20T03:56:29;46.70;;;32.87;;
67248;SDS011;63247;54.300;18.592;2023-08-20T03:58:54;46.20;;;31.33;;
67248;SDS011;63247;54.300;18.592;2023-08-20T04:01:20;44.70;;;30.30;;
67248;SDS011;63247;54.300;18.592;2023-08-20T04:03:46;46.78;;;31.77;;
67248;SDS011;63247;54.300;18.592;2023-08-20T04:06:12;47.20;;;32.20;;
67248;SDS011;63247;54.300;18.592;2023-08-20T04:08:38;46.83;;;31.73;;
67248;SDS011;63247;54.300;18.592;2023-08-20T04:11:03;44.20;;;30.27;;
67248;SDS011;63247;54.300;18.592;2023-08-20T04:13:29;44.30;;;29.37;;
67248;SDS011;63247;54.300;18.592;2023-08-20T04:15:55;41.22;;;29.13;;
67248;SDS011;63247;54.300;18.592;2023-08-20T04:18:20;262.33;;;39.87;;
67248;SDS011;63247;54.300;18.592;2023-08-20T04:20:46;37.70;;;26.40;;
67248;SDS011;63247;54.300;18.592;2023-08-20T04:23:11;39.10;;;27.17;;
67248;SDS011;63247;54.300;18.592;2023-08-20T04:25:36;37.43;;;26.93;;
67248;SDS011;63247;54.300;18.592;2023-08-20T04:28:02;38.13;;;27.47;;
67248;SDS011;63247;54.300;18.592;2023-08-20T04:30:27;37.43;;;26.87;;
67248;SDS011;63247;54.300;18.592;2023-08-20T04:32:52;39.33;;;26.67;;
67248;SDS011;63247;54.300;18.592;2023-08-20T04:35:18;37.77;;;25.47;;
67248;SDS011;63247;54.300;18.592;2023-08-20T04:37:43;33.13;;;24.20;;
67248;SDS011;63247;54.300;18.592;2023-08-20T04:40:08;33.83;;;24.25;;
67248;SDS011;63247;54.300;18.592;2023-08-20T04:42:36;31.58;;;24.02;;
67248;SDS011;63247;54.300;18.592;2023-08-20T04:45:01;30.90;;;23.50;;
67248;SDS011;63247;54.300;18.592;2023-08-20T04:47:26;34.27;;;22.87;;
67248;SDS011;63247;54.300;18.592;2023-08-20T04:49:52;30.20;;;21.70;;
67248;SDS011;63247;54.300;18.592;2023-08-20T04:52:17;103.27;;;25.63;;
67248;SDS011;63247;54.300;18.592;2023-08-20T04:54:44;24.73;;;19.80;;
67248;SDS011;63247;54.300;18.592;2023-08-20T04:57:09;26.07;;;20.77;;
67248;SDS011;63247;54.300;18.592;2023-08-20T04:59:34;27.23;;;20.27;;
67248;SDS011;63247;54.300;18.592;2023-08-20T05:01:59;184.87;;;28.37;;
67248;SDS011;63247;54.300;18.592;2023-08-20T05:04:25;23.53;;;18.00;;
67248;SDS011;63247;54.300;18.592;2023-08-20T05:06:50;23.30;;;17.80;;
67248;SDS011;63247;54.300;18.592;2023-08-20T05:09:15;22.33;;;18.03;;
67248;SDS011;63247;54.300;18.592;2023-08-20T05:11:41;25.37;;;18.83;;
67248;SDS011;63247;54.300;18.592;2023-08-20T05:14:07;22.73;;;16.93;;
67248;SDS011;63247;54.300;18.592;2023-08-20T05:16:32;21.95;;;17.02;;
67248;SDS011;63247;54.300;18.592;2023-08-20T05:18:57;22.27;;;17.17;;
67248;SDS011;63247;54.300;18.592;2023-08-20T05:21:23;21.43;;;18.37;;
67248;SDS011;63247;54.300;18.592;2023-08-20T05:23:48;21.30;;;17.37;;
67248;SDS011;63247;54.300;18.592;2023-08-20T05:26:13;20.53;;;17.27;;
67248;SDS011;63247;54.300;18.592;2023-08-20T05:28:39;22.10;;;17.50;;
67248;SDS011;63247;54.300;18.592;2023-08-20T05:31:05;23.25;;;16.77;;
67248;SDS011;63247;54.300;18.592;2023-08-20T05:33:30;19.00;;;16.43;;
67248;SDS011;63247;54.300;18.592;2023-08-20T05:35:56;19.13;;;16.27;;
67248;SDS011;63247;54.300;18.592;2023-08-20T05:38:21;20.80;;;14.83;;
67248;SDS011;63247;54.300;18.592;2023-08-20T05:40:48;17.85;;;14.75;;
67248;SDS011;63247;54.300;18.592;2023-08-20T05:43:14;18.30;;;15.00;;
67248;SDS011;63247;54.300;18.592;2023-08-20T05:45:39;19.05;;;16.63;;
67248;SDS011;63247;54.300;18.592;2023-08-20T05:48:05;23.37;;;18.10;;
67248;SDS011;63247;54.300;18.592;2023-08-20T05:50:30;130.13;;;24.03;;
67248;SDS011;63247;54.300;18.592;2023-08-20T05:52:56;45.17;;;18.23;;
67248;SDS011;63247;54.300;18.592;2023-08-20T05:55:21;20.13;;;17.07;;
67248;SDS011;63247;54.300;18.592;2023-08-20T05:57:46;20.75;;;15.93;;
67248;SDS011;63247;54.300;18.592;2023-08-20T06:00:12;22.80;;;17.33;;
67248;SDS011;63247;54.300;18.592;2023-08-20T06:02:37;22.90;;;16.43;;
67248;SDS011;63247;54.300;18.592;2023-08-20T06:05:03;21.77;;;16.45;;
67248;SDS011;63247;54.300;18.592;2023-08-20T06:07:33;24.20;;;16.85;;
67248;SDS011;63247;54.300;18.592;2023-08-20T06:09:58;116.00;;;26.17;;
67248;SDS011;63247;54.300;18.592;2023-08-20T06:12:24;22.03;;;17.00;;
67248;SDS011;63247;54.300;18.592;2023-08-20T06:14:49;21.40;;;16.73;;
67248;SDS011;63247;54.300;18.592;2023-08-20T06:17:15;20.23;;;15.50;;
67248;SDS011;63247;54.300;18.592;2023-08-20T06:19:40;164.10;;;30.43;;
67248;SDS011;63247;54.300;18.592;2023-08-20T06:22:06;38.80;;;17.67;;
67248;SDS011;63247;54.300;18.592;2023-08-20T06:24:31;86.57;;;22.03;;
67248;SDS011;63247;54.300;18.592;2023-08-20T06:26:57;21.53;;;17.33;;
67248;SDS011;63247;54.300;18.592;2023-08-20T06:29:22;22.45;;;17.58;;
67248;SDS011;63247;54.300;18.592;2023-08-20T06:31:48;24.10;;;18.40;;
67248;SDS011;63247;54.300;18.592;2023-08-20T06:34:14;23.88;;;18.48;;
67248;SDS011;63247;54.300;18.592;2023-08-20T06:36:40;26.93;;;19.33;;
67248;SDS011;63247;54.300;18.592;2023-08-20T06:39:05;22.67;;;17.90;;
67248;SDS011;63247;54.300;18.592;2023-08-20T06:41:30;21.13;;;18.47;;
67248;SDS011;63247;54.300;18.592;2023-08-20T06:43:56;20.77;;;17.47;;
67248;SDS011;63247;54.300;18.592;2023-08-20T06:46:22;23.00;;;18.80;;
67248;SDS011;63247;54.300;18.592;2023-08-20T06:48:47;23.47;;;18.80;;
67248;SDS011;63247;54.300;18.592;2023-08-20T06:51:15;20.38;;;18.17;;
67248;SDS011;63247;54.300;18.592;2023-08-20T06:53:47;22.10;;;18.33;;
67248;SDS011;63247;54.300;18.592;2023-08-20T06:56:15;20.30;;;17.67;;
67248;SDS011;63247;54.300;18.592;2023-08-20T06:58:41;22.17;;;17.95;;
67248;SDS011;63247;54.300;18.592;2023-08-20T07:01:07;23.45;;;18.17;;
67248;SDS011;63247;54.300;18.592;2023-08-20T07:03:40;20.58;;;17.23;;
67248;SDS011;63247;54.300;18.592;2023-08-20T07:06:06;20.63;;;17.60;;
67248;SDS011;63247;54.300;18.592;2023-08-20T07:08:39;70.40;;;18.73;;
67248;SDS011;63247;54.300;18.592;2023-08-20T07:11:05;21.38;;;18.30;;
67248;SDS011;63247;54.300;18.592;2023-08-20T07:13:31;21.48;;;17.75;;
67248;SDS011;63247;54.300;18.592;2023-08-20T07:15:56;22.63;;;18.07;;
67248;SDS011;63247;54.300;18.592;2023-08-20T07:18:22;20.50;;;18.37;;
67248;SDS011;63247;54.300;18.592;2023-08-20T07:20:47;24.83;;;18.57;;
67248;SDS011;63247;54.300;18.592;2023-08-20T07:23:12;19.53;;;16.67;;
67248;SDS011;63247;54.300;18.592;2023-08-20T07:25:39;18.85;;;16.73;;
67248;SDS011;63247;54.300;18.592;2023-08-20T07:28:05;45.95;;;17.92;;
67248;SDS011;63247;54.300;18.592;2023-08-20T07:30:31;19.83;;;17.57;;
67248;SDS011;63247;54.300;18.592;2023-08-20T07:32:57;22.08;;;16.95;;
67248;SDS011;63247;54.300;18.592;2023-08-20T07:35:22;19.93;;;17.73;;
67248;SDS011;63247;54.300;18.592;2023-08-20T07:37:48;23.07;;;18.00;;
67248;SDS011;63247;54.300;18.592;2023-08-20T07:40:13;22.37;;;17.43;;
67248;SDS011;63247;54.300;18.592;2023-08-20T07:42:42;20.75;;;17.15;;
67248;SDS011;63247;54.300;18.592;2023-08-20T07:45:08;21.20;;;18.20;;
67248;SDS011;63247;54.300;18.592;2023-08-20T07:47:35;21.63;;;16.73;;
67248;SDS011;63247;54.300;18.592;2023-08-20T07:50:01;19.25;;;17.10;;
67248;SDS011;63247;54.300;18.592;2023-08-20T07:52:26;21.17;;;17.60;;
67248;SDS011;63247;54.300;18.592;2023-08-20T07:54:52;37.87;;;19.03;;
67248;SDS011;63247;54.300;18.592;2023-08-20T07:57:17;22.20;;;18.63;;
67248;SDS011;63247;54.300;18.592;2023-08-20T07:59:42;20.70;;;18.08;;
67248;SDS011;63247;54.300;18.592;2023-08-20T08:02:08;23.90;;;18.30;;
67248;SDS011;63247;54.300;18.592;2023-08-20T08:04:33;20.67;;;18.10;;
67248;SDS011;63247;54.300;18.592;2023-08-20T08:06:59;19.98;;;17.45;;
67248;SDS011;63247;54.300;18.592;2023-08-20T08:09:28;20.70;;;16.73;;
67248;SDS011;63247;54.300;18.592;2023-08-20T08:11:56;22.25;;;18.67;;
67248;SDS011;63247;54.300;18.592;2023-08-20T08:14:22;21.02;;;17.85;;
67248;SDS011;63247;54.300;18.592;2023-08-20T08:16:48;23.87;;;18.10;;
67248;SDS011;63247;54.300;18.592;2023-08-20T08:19:13;21.40;;;18.03;;
67248;SDS011;63247;54.300;18.592;2023-08-20T08:21:39;22.73;;;18.48;;
67248;SDS011;63247;54.300;18.592;2023-08-20T08:24:04;24.33;;;17.60;;
67248;SDS011;63247;54.300;18.592;2023-08-20T08:26:30;24.20;;;17.83;;
67248;SDS011;63247;54.300;18.592;2023-08-20T08:28:56;25.00;;;17.92;;
67248;SDS011;63247;54.300;18.592;2023-08-20T08:31:21;24.10;;;18.17;;
67248;SDS011;63247;54.300;18.592;2023-08-20T08:33:47;19.98;;;17.77;;
67248;SDS011;63247;54.300;18.592;2023-08-20T08:36:12;22.20;;;17.40;;
67248;SDS011;63247;54.300;18.592;2023-08-20T08:38:38;22.33;;;17.17;;
67248;SDS011;63247;54.300;18.592;2023-08-20T08:41:03;19.77;;;17.37;;
67248;SDS011;63247;54.300;18.592;2023-08-20T08:43:32;20.98;;;16.92;;
67248;SDS011;63247;54.300;18.592;2023-08-20T08:45:58;19.52;;;17.02;;
67248;SDS011;63247;54.300;18.592;2023-08-20T08:48:25;20.35;;;17.40;;
67248;SDS011;63247;54.300;18.592;2023-08-20T08:50:51;20.57;;;17.23;;
67248;SDS011;63247;54.300;18.592;2023-08-20T08:53:17;20.55;;;17.75;;
67248;SDS011;63247;54.300;18.592;2023-08-20T08:55:43;21.42;;;18.40;;
67248;SDS011;63247;54.300;18.592;2023-08-20T08:58:08;91.97;;;22.93;;
67248;SDS011;63247;54.300;18.592;2023-08-20T09:00:33;21.17;;;17.20;;
67248;SDS011;63247;54.300;18.592;2023-08-20T09:02:59;23.73;;;17.97;;
67248;SDS011;63247;54.300;18.592;2023-08-20T09:05:24;19.00;;;16.10;;
67248;SDS011;63247;54.300;18.592;2023-08-20T09:07:56;19.25;;;16.33;;
67248;SDS011;63247;54.300;18.592;2023-08-20T09:10:27;23.27;;;17.15;;
67248;SDS011;63247;54.300;18.592;2023-08-20T09:12:54;18.33;;;16.40;;
67248;SDS011;63247;54.300;18.592;2023-08-20T09:15:21;21.83;;;17.08;;
67248;SDS011;63247;54.300;18.592;2023-08-20T09:17:54;18.75;;;16.67;;
67248;SDS011;63247;54.300;18.592;2023-08-20T09:20:33;19.30;;;16.87;;
67248;SDS011;63247;54.300;18.592;2023-08-20T09:22:59;16.90;;;15.05;;
67248;SDS011;63247;54.300;18.592;2023-08-20T09:25:24;20.23;;;16.00;;
67248;SDS011;63247;54.300;18.592;2023-08-20T09:27:49;17.93;;;15.97;;
67248;SDS011;63247;54.300;18.592;2023-08-20T09:30:17;19.37;;;16.07;;
67248;SDS011;63247;54.300;18.592;2023-08-20T09:32:45;22.40;;;15.75;;
67248;SDS011;63247;54.300;18.592;2023-08-20T09:35:17;19.67;;;15.57;;
67248;SDS011;63247;54.300;18.592;2023-08-20T09:37:43;24.75;;;14.25;;
67248;SDS011;63247;54.300;18.592;2023-08-20T09:40:09;16.38;;;13.73;;
67248;SDS011;63247;54.300;18.592;2023-08-20T09:42:35;16.40;;;14.05;;
67248;SDS011;63247;54.300;18.592;2023-08-20T09:45:01;15.33;;;13.67;;
67248;SDS011;63247;54.300;18.592;2023-08-20T09:47:28;15.18;;;13.48;;
67248;SDS011;63247;54.300;18.592;2023-08-20T09:49:55;18.40;;;13.93;;
67248;SDS011;63247;54.300;18.592;2023-08-20T09:52:25;18.05;;;14.93;;
67248;SDS011;63247;54.300;18.592;2023-08-20T09:55:00;19.45;;;14.63;;
67248;SDS011;63247;54.300;18.592;2023-08-20T10:00:00;17.88;;;14.80;;
67248;SDS011;63247;54.300;18.592;2023-08-20T10:02:28;16.97;;;14.83;;
67248;SDS011;63247;54.300;18.592;2023-08-20T10:04:54;17.33;;;14.70;;
67248;SDS011;63247;54.300;18.592;2023-08-20T10:07:20;17.77;;;15.05;;
67248;SDS011;63247;54.300;18.592;2023-08-20T10:09:47;18.73;;;15.18;;
67248;SDS011;63247;54.300;18.592;2023-08-20T10:12:15;18.73;;;13.77;;
67248;SDS011;63247;54.300;18.592;2023-08-20T10:14:41;18.57;;;14.90;;
67248;SDS011;63247;54.300;18.592;2023-08-20T10:17:07;20.83;;;14.83;;
67248;SDS011;63247;54.300;18.592;2023-08-20T10:19:33;18.88;;;14.35;;
67248;SDS011;63247;54.300;18.592;2023-08-20T10:21:58;18.67;;;14.75;;
67248;SDS011;63247;54.300;18.592;2023-08-20T10:24:26;17.43;;;14.90;;
67248;SDS011;63247;54.300;18.592;2023-08-20T10:27:10;17.37;;;14.23;;
67248;SDS011;63247;54.300;18.592;2023-08-20T10:29:39;17.70;;;14.85;;
67248;SDS011;63247;54.300;18.592;2023-08-20T10:32:11;17.48;;;14.13;;
67248;SDS011;63247;54.300;18.592;2023-08-20T10:34:38;17.17;;;13.90;;
67248;SDS011;63247;54.300;18.592;2023-08-20T10:37:13;17.70;;;14.77;;
67248;SDS011;63247;54.300;18.592;2023-08-20T10:39:39;16.30;;;13.60;;
67248;SDS011;63247;54.300;18.592;2023-08-20T10:47:29;27.05;;;16.92;;
67248;SDS011;63247;54.300;18.592;2023-08-20T10:50:10;27.98;;;16.83;;
67248;SDS011;63247;54.300;18.592;2023-08-20T10:52:47;25.90;;;16.13;;
67248;SDS011;63247;54.300;18.592;2023-08-20T10:55:22;28.13;;;17.00;;
67248;SDS011;63247;54.300;18.592;2023-08-20T10:57:54;27.02;;;16.48;;
67248;SDS011;63247;54.300;18.592;2023-08-20T11:00:21;32.97;;;17.13;;
67248;SDS011;63247;54.300;18.592;2023-08-20T11:02:46;29.60;;;16.90;;
67248;SDS011;63247;54.300;18.592;2023-08-20T11:05:18;32.40;;;17.87;;
67248;SDS011;63247;54.300;18.592;2023-08-20T11:07:46;31.92;;;18.80;;
67248;SDS011;63247;54.300;18.592;2023-08-20T11:10:13;31.98;;;19.55;;
67248;SDS011;63247;54.300;18.592;2023-08-20T11:12:39;33.47;;;19.98;;
67248;SDS011;63247;54.300;18.592;2023-08-20T11:15:05;34.37;;;21.37;;
67248;SDS011;63247;54.300;18.592;2023-08-20T11:17:33;29.33;;;20.35;;
67248;SDS011;63247;54.300;18.592;2023-08-20T11:19:59;35.23;;;21.40;;
67248;SDS011;63247;54.300;18.592;2023-08-20T11:22:24;37.87;;;20.97;;
67248;SDS011;63247;54.300;18.592;2023-08-20T11:24:49;32.63;;;20.60;;
67248;SDS011;63247;54.300;18.592;2023-08-20T11:27:15;34.53;;;22.23;;
67248;SDS011;63247;54.300;18.592;2023-08-20T11:29:44;37.20;;;23.10;;
67248;SDS011;63247;54.300;18.592;2023-08-20T11:32:09;32.83;;;21.23;;
67248;SDS011;63247;54.300;18.592;2023-08-20T11:34:35;28.83;;;21.05;;
67248;SDS011;63247;54.300;18.592;2023-08-20T11:37:03;182.90;;;34.92;;
67248;SDS011;63247;54.300;18.592;2023-08-20T11:39:28;26.27;;;16.70;;
67248;SDS011;63247;54.300;18.592;2023-08-20T11:41:54;21.43;;;12.60;;
67248;SDS011;63247;54.300;18.592;2023-08-20T11:44:20;16.80;;;10.60;;
67248;SDS011;63247;54.300;18.592;2023-08-20T11:46:51;17.02;;;10.50;;
67248;SDS011;63247;54.300;18.592;2023-08-20T11:49:16;15.20;;;10.00;;
67248;SDS011;63247;54.300;18.592;2023-08-20T11:51:47;16.17;;;10.50;;
67248;SDS011;63247;54.300;18.592;2023-08-20T11:54:13;15.68;;;8.93;;
67248;SDS011;63247;54.300;18.592;2023-08-20T11:56:44;17.38;;;10.70;;
67248;SDS011;63247;54.300;18.592;2023-08-20T11:59:11;17.60;;;10.60;;
67248;SDS011;63247;54.300;18.592;2023-08-20T12:01:37;17.27;;;10.60;;
67248;SDS011;63247;54.300;18.592;2023-08-20T12:04:03;16.93;;;10.37;;
67248;SDS011;63247;54.300;18.592;2023-08-20T12:06:29;54.92;;;19.02;;
67248;SDS011;63247;54.300;18.592;2023-08-20T12:08:56;19.23;;;10.88;;
67248;SDS011;63247;54.300;18.592;2023-08-20T12:11:23;23.10;;;15.90;;
67248;SDS011;63247;54.300;18.592;2023-08-20T12:13:50;17.80;;;11.70;;
67248;SDS011;63247;54.300;18.592;2023-08-20T12:16:15;15.53;;;11.50;;
67248;SDS011;63247;54.300;18.592;2023-08-20T12:18:41;15.07;;;10.50;;
67248;SDS011;63247;54.300;18.592;2023-08-20T12:21:06;11.43;;;8.52;;
67248;SDS011;63247;54.300;18.592;2023-08-20T12:23:31;18.37;;;8.27;;
67248;SDS011;63247;54.300;18.592;2023-08-20T12:25:57;11.23;;;8.27;;
67248;SDS011;63247;54.300;18.592;2023-08-20T12:28:22;13.00;;;8.47;;
67248;SDS011;63247;54.300;18.592;2023-08-20T12:30:47;11.77;;;8.40;;
67248;SDS011;63247;54.300;18.592;2023-08-20T12:33:13;12.50;;;8.70;;
67248;SDS011;63247;54.300;18.592;2023-08-20T12:35:38;11.23;;;8.30;;
67248;SDS011;63247;54.300;18.592;2023-08-20T12:38:04;10.83;;;8.60;;
67248;SDS011;63247;54.300;18.592;2023-08-20T12:40:30;12.20;;;8.77;;
67248;SDS011;63247;54.300;18.592;2023-08-20T12:42:55;14.13;;;9.48;;
67248;SDS011;63247;54.300;18.592;2023-08-20T12:45:21;12.83;;;10.23;;
67248;SDS011;63247;54.300;18.592;2023-08-20T12:47:48;16.65;;;12.38;;
67248;SDS011;63247;54.300;18.592;2023-08-20T12:50:13;17.33;;;13.17;;
67248;SDS011;63247;54.300;18.592;2023-08-20T12:52:39;16.97;;;12.37;;
67248;SDS011;63247;54.300;18.592;2023-08-20T12:55:04;15.93;;;12.10;;
67248;SDS011;63247;54.300;18.592;2023-08-20T12:57:30;17.88;;;13.20;;
67248;SDS011;63247;54.300;18.592;2023-08-20T12:59:59;16.70;;;13.67;;
67248;SDS011;63247;54.300;18.592;2023-08-20T13:02:24;18.33;;;15.05;;
67248;SDS011;63247;54.300;18.592;2023-08-20T13:04:50;19.67;;;15.60;;
67248;SDS011;63247;54.300;18.592;2023-08-20T13:07:15;20.07;;;15.60;;
67248;SDS011;63247;54.300;18.592;2023-08-20T13:09:41;22.85;;;15.50;;
67248;SDS011;63247;54.300;18.592;2023-08-20T13:12:07;19.55;;;15.10;;
67248;SDS011;63247;54.300;18.592;2023-08-20T13:14:41;20.88;;;15.07;;
67248;SDS011;63247;54.300;18.592;2023-08-20T13:17:07;18.90;;;15.37;;
67248;SDS011;63247;54.300;18.592;2023-08-20T13:19:33;19.77;;;14.45;;
67248;SDS011;63247;54.300;18.592;2023-08-20T13:21:58;15.33;;;13.60;;
67248;SDS011;63247;54.300;18.592;2023-08-20T13:24:23;16.23;;;13.07;;
67248;SDS011;63247;54.300;18.592;2023-08-20T13:26:49;16.67;;;12.25;;
67248;SDS011;63247;54.300;18.592;2023-08-20T13:29:16;16.90;;;12.20;;
67248;SDS011;63247;54.300;18.592;2023-08-20T13:31:41;14.93;;;11.87;;
67248;SDS011;63247;54.300;18.592;2023-08-20T13:34:07;14.30;;;11.80;;
67248;SDS011;63247;54.300;18.592;2023-08-20T13:36:32;14.90;;;12.20;;
67248;SDS011;63247;54.300;18.592;2023-08-20T13:38:57;13.83;;;11.37;;
67248;SDS011;63247;54.300;18.592;2023-08-20T13:41:23;13.87;;;11.73;;
67248;SDS011;63247;54.300;18.592;2023-08-20T13:43:48;15.37;;;11.37;;
67248;SDS011;63247;54.300;18.592;2023-08-20T13:46:13;13.63;;;11.53;;
67248;SDS011;63247;54.300;18.592;2023-08-20T13:48:39;13.00;;;10.83;;
67248;SDS011;63247;54.300;18.592;2023-08-20T13:51:04;16.53;;;11.13;;
67248;SDS011;63247;54.300;18.592;2023-08-20T13:53:29;16.30;;;10.80;;
67248;SDS011;63247;54.300;18.592;2023-08-20T13:55:55;15.60;;;11.07;;
67248;SDS011;63247;54.300;18.592;2023-08-20T13:58:20;13.03;;;10.90;;
67248;SDS011;63247;54.300;18.592;2023-08-20T14:00:46;12.30;;;10.40;;
67248;SDS011;63247;54.300;18.592;2023-08-20T14:03:11;15.88;;;10.93;;
67248;SDS011;63247;54.300;18.592;2023-08-20T14:05:36;18.60;;;11.00;;
67248;SDS011;63247;54.300;18.592;2023-08-20T14:08:02;15.90;;;12.23;;
67248;SDS011;63247;54.300;18.592;2023-08-20T14:10:28;13.73;;;10.93;;
67248;SDS011;63247;54.300;18.592;2023-08-20T14:12:53;15.37;;;11.27;;
67248;SDS011;63247;54.300;18.592;2023-08-20T14:15:18;15.80;;;11.63;;
67248;SDS011;63247;54.300;18.592;2023-08-20T14:17:44;14.00;;;11.57;;
67248;SDS011;63247;54.300;18.592;2023-08-20T14:20:10;20.42;;;12.52;;